Canarana Airport


Codes: SWEK/CQA
Name: Canarana Airport
City: Canarana
Country: Brazil
Elevation: 1314 ft.

Photos at Canarana Airport


   Photos courtesy of SpottingLog. You can add your own sightings and photos by signing up for a free trial today.



No photos found.

Weather at Canarana Airport


Time (UTC)DescriptionTempratureWindCloud coverageVisibilityPressureHumidity
15-Apr-2024 18:00Light Rain28°C7 mph, E100%10000m1010hPa75%
15-Apr-2024 21:00Light Rain27°C4 mph, E100%10000m1010hPa79%
16-Apr-2024 00:00Overcast Clouds25°C2 mph, E100%10000m1011hPa83%
16-Apr-2024 03:00Overcast Clouds23°C4 mph, SE100%10000m1013hPa90%
16-Apr-2024 06:00Overcast Clouds23°C2 mph, SE99%10000m1012hPa92%
16-Apr-2024 09:00Broken Clouds22°C4 mph, SE81%10000m1012hPa91%
16-Apr-2024 12:00Overcast Clouds26°C4 mph, SE87%10000m1014hPa83%
16-Apr-2024 15:00Light Rain30°C4 mph, E60%10000m1013hPa61%
16-Apr-2024 18:00Light Rain30°C7 mph, E47%10000m1010hPa60%
16-Apr-2024 21:00Clear Sky27°C2 mph, SE10%10000m1010hPa75%
17-Apr-2024 00:00Clear Sky25°C4 mph, S6%10000m1012hPa79%
17-Apr-2024 03:00Scattered Clouds24°C4 mph, SE45%10000m1013hPa85%
17-Apr-2024 06:00Broken Clouds23°C4 mph, S73%10000m1012hPa85%
17-Apr-2024 09:00Overcast Clouds23°C4 mph, SE96%10000m1012hPa87%
17-Apr-2024 12:00Overcast Clouds26°C7 mph, SE97%10000m1014hPa78%
17-Apr-2024 15:00Light Rain30°C4 mph, SE100%9098m1013hPa65%
17-Apr-2024 18:00Light Rain30°C4 mph, SE100%10000m1010hPa57%
17-Apr-2024 21:00Broken Clouds27°C2 mph, S84%10000m1010hPa73%
18-Apr-2024 00:00Light Rain25°C4 mph, S92%10000m1012hPa78%
18-Apr-2024 03:00Broken Clouds24°C4 mph, SE74%10000m1012hPa86%
18-Apr-2024 06:00Light Rain23°C4 mph, SE63%10000m1011hPa90%
18-Apr-2024 09:00Scattered Clouds22°C4 mph, SE29%10000m1011hPa92%
18-Apr-2024 12:00Scattered Clouds26°C7 mph, SE31%10000m1013hPa79%
18-Apr-2024 15:00Light Rain29°C4 mph, E5%10000m1012hPa70%
18-Apr-2024 18:00Light Rain31°C2 mph, SE6%10000m1009hPa58%
18-Apr-2024 21:00Light Rain27°C4 mph, S24%10000m1010hPa79%
19-Apr-2024 00:00Light Rain24°C7 mph, SE49%10000m1012hPa91%
19-Apr-2024 03:00Light Rain23°C4 mph, SE75%10000m1012hPa93%
19-Apr-2024 06:00Light Rain23°C2 mph, SE52%10000m1011hPa90%
19-Apr-2024 09:00Broken Clouds22°C2 mph, SE59%10000m1011hPa91%
19-Apr-2024 12:00Scattered Clouds26°C4 mph, SE32%10000m1013hPa81%
19-Apr-2024 15:00Light Rain30°C4 mph, SE12%10000m1012hPa67%
19-Apr-2024 18:00Broken Clouds31°C4 mph, E52%10000m1009hPa59%
19-Apr-2024 21:00Light Rain27°C2 mph, SE71%6152m1009hPa79%
20-Apr-2024 00:00Light Rain25°C2 mph, E60%10000m1011hPa86%
20-Apr-2024 03:00Moderate Rain24°C2 mph, SE56%10000m1012hPa92%
20-Apr-2024 06:00Moderate Rain22°C2 mph, E58%10000m1011hPa96%
20-Apr-2024 09:00Light Rain22°C0 mph, S100%10000m1011hPa95%
20-Apr-2024 12:00Light Rain25°C0 mph, SE89%10000m1013hPa87%
20-Apr-2024 15:00Light Rain30°C4 mph, E87%10000m1012hPa67%